Airfield :
LOGIN :

Register | Disclaimer

   EN    FR    IT 

 










Legend :    VFR   Marginal VFR   IFR   Intensive IFR   Very Intensive IFR
Visi :
Ceiling :
>= 8 km
>= 3000ft
5 to 8 km
1000 to 3000 ft
1500m to 5 km
500 to 1000 ft
800 to 1500m
200 to 500 ft
< 800m
< 200 ft
Symbols :   Thunderstorms  Fog  Heavy snow  Heavy precipitations  Wind > 20 kt
SIGMETs :     Misc.  Thunderstorms  Icing  Turbulence  Mountain Waves  Volcanic Ashes







- Airport Elevation : 59 ft
- IATA code : TSF


LIPH - Treviso

CURRENT METAR :
  • 201520Z 08006KT 030V110 CAVOK 28/08 Q1017

EXPIRED METARs :
  • 201450Z 10007KT 060V140 CAVOK 28/07 Q1017
  • 201420Z 10007KT 070V130 CAVOK 28/08 Q1017
  • 201350Z 09007KT 050V140 CAVOK 28/08 Q1017
  • 201320Z 10007KT 060V140 CAVOK 28/09 Q1017
  • 201250Z 08005KT 030V160 CAVOK 27/09 Q1017
  • 201220Z 09005KT 020V150 CAVOK 27/10 Q1017

TAF TAF LIPH
Valid from the 20 at 12:00 until the 21 at 12:00 UTC


201100Z 2012/2112 VRB05KT 9999 FEW030
No reported NOTAMs for that airfield.



MET'MAP, your aeronautical weather chart ! - Copyright ORBIFLY December 2007 - Disclaimer

ORBIFLY MET'MAP TEAM :

Programming & Development : Alexandra Zaïnal
Concept & Development : Baudouin d'Aumeries
Co-Development & Prog : Marc-Olivier Méhu
Technical & hardware support : Manuel Goepfert

Contact : metmap@orbifly.com




SOURCES & CREDITS :

   NOAA